MET994 - Hong Kong to Kuala Lumpur International Airport

Airbus A330-243
787MT
3 hrs 30 mins
1375 nm
Scheduled - M | TU | TH

Bid/PiRep Status

Bid was submitted on Jan 02 2017.

PiRep # 74577: Approved by Dave Nichols on January 3rd, 2017 5:15 UTC

Departure

Departing from
Hong Kong (HKG)
Departure gate
Terminal 1
Scheduled Departure
GMT 0330
Local 1130
METAR VHHH 221400Z 14006KT 100V210 CAVOK 17/06 Q1025 NOSIG
TAF TAF VHHH 221100Z 2212/2318 06010KT 9000 NSC TX20/2307Z TN13/2223Z TEMPO 2212/2216 VRB05KT TEMPO 2303/2310 29010KT TEMPO 2313/2318 09015G25KT
  • No charts available

Arrival

Arriving at
Kuala Lumpur International Airport (KUL)
Arrival gate
Unassigned
Scheduled Arrival
GMT 0700
Local 1500
METAR WMKK 221400Z 08010KT 020V130 9999 -RA FEW010 FEW017CB SCT140 BKN270 27/23 Q1012 NOSIG
TAF TAF WMKK 221100Z 2212/2318 08005KT 9999 FEW017CB SCT140 BKN280 PROB30 TEMPO 2212/2216 6000 -TSRA FEW015CB SCT018 TEMPO 2306/2310 5000 TSRA FEW015CB SCT018

Route Map

Planning Resources

PECA1A SIKOU A202 SAMAS G221 PCA TSN L637 BITOD IKUKO PULIP PULI1V
PECAN V10 ALLEY V31 SURFA V11 IDOSI A1 BUNTA G221 PCA W12 BMT W1 AC L644 CN L642 ENREP M763 TAXUL Y331 PIBOS
SANDI2A SANDI L642 ENREO M763 PIBOS PIBOSA
CH L642 VEPLI UGPEK VPK G584 VKL
PECAN1A PECAN V12 EPDOS L642 ENREP M763 TAXUL Y349 PULIP
Route:
OFP Layout:
Units:
Detailed Navlog:
ETOPS Planning:
Plan Stepclimbs:
Runway Analysis:
Include NOTAMS:
FIR NOTAMS:
Flight Maps:

Return Flights

MET995
Airbus A330-243
0830 GMT

Popularity

Hub Current Bids PiReps this month Total PiReps
KMCI 0 1 2
KLAX 0 0 3
KBOS 0 0 0